sensor_id;sensor_type;location;lat;lon;timestamp;P1;durP1;ratioP1;P2;durP2;ratioP2
7128;SDS011;3606;52.930;8.644;2022-08-30T00:02:05;4.30;;;2.60;;
7128;SDS011;3606;52.930;8.644;2022-08-30T00:04:30;4.30;;;2.50;;
7128;SDS011;3606;52.930;8.644;2022-08-30T00:06:56;3.17;;;2.30;;
7128;SDS011;3606;52.930;8.644;2022-08-30T00:09:22;3.90;;;2.73;;
7128;SDS011;3606;52.930;8.644;2022-08-30T00:11:47;2.50;;;2.30;;
7128;SDS011;3606;52.930;8.644;2022-08-30T00:14:15;6.43;;;2.37;;
7128;SDS011;3606;52.930;8.644;2022-08-30T00:16:42;3.40;;;2.80;;
7128;SDS011;3606;52.930;8.644;2022-08-30T00:19:07;3.23;;;2.40;;
7128;SDS011;3606;52.930;8.644;2022-08-30T00:21:33;6.07;;;2.47;;
7128;SDS011;3606;52.930;8.644;2022-08-30T00:23:58;5.97;;;2.40;;
7128;SDS011;3606;52.930;8.644;2022-08-30T00:26:24;2.37;;;2.07;;
7128;SDS011;3606;52.930;8.644;2022-08-30T00:28:50;6.27;;;2.23;;
7128;SDS011;3606;52.930;8.644;2022-08-30T00:31:15;2.43;;;2.10;;
7128;SDS011;3606;52.930;8.644;2022-08-30T00:33:41;3.27;;;2.20;;
7128;SDS011;3606;52.930;8.644;2022-08-30T00:36:07;3.63;;;2.60;;
7128;SDS011;3606;52.930;8.644;2022-08-30T00:38:33;2.27;;;2.07;;
7128;SDS011;3606;52.930;8.644;2022-08-30T00:40:58;2.37;;;2.17;;
7128;SDS011;3606;52.930;8.644;2022-08-30T00:43:28;2.73;;;2.10;;
7128;SDS011;3606;52.930;8.644;2022-08-30T00:45:56;3.50;;;2.10;;
7128;SDS011;3606;52.930;8.644;2022-08-30T00:48:21;3.07;;;2.03;;
7128;SDS011;3606;52.930;8.644;2022-08-30T00:50:49;1.77;;;1.67;;
7128;SDS011;3606;52.930;8.644;2022-08-30T00:53:21;2.70;;;2.30;;
7128;SDS011;3606;52.930;8.644;2022-08-30T00:55:49;4.33;;;2.43;;
7128;SDS011;3606;52.930;8.644;2022-08-30T00:58:17;2.53;;;2.33;;
7128;SDS011;3606;52.930;8.644;2022-08-30T01:00:46;3.13;;;2.23;;
7128;SDS011;3606;52.930;8.644;2022-08-30T01:03:14;3.37;;;2.50;;
7128;SDS011;3606;52.930;8.644;2022-08-30T01:05:39;4.20;;;2.43;;
7128;SDS011;3606;52.930;8.644;2022-08-30T01:08:06;3.30;;;2.47;;
7128;SDS011;3606;52.930;8.644;2022-08-30T01:10:32;4.23;;;2.53;;
7128;SDS011;3606;52.930;8.644;2022-08-30T01:13:00;4.70;;;2.70;;
7128;SDS011;3606;52.930;8.644;2022-08-30T01:15:26;3.27;;;2.90;;
7128;SDS011;3606;52.930;8.644;2022-08-30T01:17:53;3.47;;;3.17;;
7128;SDS011;3606;52.930;8.644;2022-08-30T01:20:22;3.40;;;2.80;;
7128;SDS011;3606;52.930;8.644;2022-08-30T01:25:21;3.93;;;2.77;;
7128;SDS011;3606;52.930;8.644;2022-08-30T01:27:52;4.53;;;2.93;;
7128;SDS011;3606;52.930;8.644;2022-08-30T01:30:22;3.00;;;2.70;;
7128;SDS011;3606;52.930;8.644;2022-08-30T01:32:49;3.87;;;3.07;;
7128;SDS011;3606;52.930;8.644;2022-08-30T01:35:20;6.33;;;4.50;;
7128;SDS011;3606;52.930;8.644;2022-08-30T01:37:45;8.03;;;5.00;;
7128;SDS011;3606;52.930;8.644;2022-08-30T01:40:12;9.67;;;6.80;;
7128;SDS011;3606;52.930;8.644;2022-08-30T01:42:40;12.43;;;9.43;;
7128;SDS011;3606;52.930;8.644;2022-08-30T01:45:06;12.97;;;8.57;;
7128;SDS011;3606;52.930;8.644;2022-08-30T01:47:32;11.90;;;6.80;;
7128;SDS011;3606;52.930;8.644;2022-08-30T01:49:58;8.27;;;6.37;;
7128;SDS011;3606;52.930;8.644;2022-08-30T01:52:24;12.50;;;8.87;;
7128;SDS011;3606;52.930;8.644;2022-08-30T01:54:51;14.90;;;10.07;;
7128;SDS011;3606;52.930;8.644;2022-08-30T01:57:18;15.70;;;10.03;;
7128;SDS011;3606;52.930;8.644;2022-08-30T01:59:45;19.07;;;12.30;;
7128;SDS011;3606;52.930;8.644;2022-08-30T02:02:14;17.47;;;11.40;;
7128;SDS011;3606;52.930;8.644;2022-08-30T02:04:45;17.20;;;9.97;;
7128;SDS011;3606;52.930;8.644;2022-08-30T02:07:11;15.87;;;10.47;;
7128;SDS011;3606;52.930;8.644;2022-08-30T02:09:37;14.80;;;10.07;;
7128;SDS011;3606;52.930;8.644;2022-08-30T02:12:03;12.67;;;8.70;;
7128;SDS011;3606;52.930;8.644;2022-08-30T02:14:31;10.17;;;8.03;;
7128;SDS011;3606;52.930;8.644;2022-08-30T02:16:57;11.17;;;7.17;;
7128;SDS011;3606;52.930;8.644;2022-08-30T02:19:23;7.97;;;6.37;;
7128;SDS011;3606;52.930;8.644;2022-08-30T02:21:48;8.20;;;5.37;;
7128;SDS011;3606;52.930;8.644;2022-08-30T02:24:14;9.73;;;5.73;;
7128;SDS011;3606;52.930;8.644;2022-08-30T02:26:40;7.53;;;5.40;;
7128;SDS011;3606;52.930;8.644;2022-08-30T02:29:06;10.63;;;5.80;;
7128;SDS011;3606;52.930;8.644;2022-08-30T02:31:32;8.87;;;5.20;;
7128;SDS011;3606;52.930;8.644;2022-08-30T02:33:57;5.93;;;4.63;;
7128;SDS011;3606;52.930;8.644;2022-08-30T02:36:23;6.70;;;5.00;;
7128;SDS011;3606;52.930;8.644;2022-08-30T02:38:49;5.70;;;4.83;;
7128;SDS011;3606;52.930;8.644;2022-08-30T02:41:15;8.47;;;4.60;;
7128;SDS011;3606;52.930;8.644;2022-08-30T02:43:41;7.63;;;4.47;;
7128;SDS011;3606;52.930;8.644;2022-08-30T02:46:07;4.80;;;4.20;;
7128;SDS011;3606;52.930;8.644;2022-08-30T02:48:33;4.43;;;4.03;;
7128;SDS011;3606;52.930;8.644;2022-08-30T02:51:03;4.20;;;3.80;;
7128;SDS011;3606;52.930;8.644;2022-08-30T02:53:36;5.37;;;4.00;;
7128;SDS011;3606;52.930;8.644;2022-08-30T02:56:03;4.63;;;3.53;;
7128;SDS011;3606;52.930;8.644;2022-08-30T02:58:28;7.03;;;3.40;;
7128;SDS011;3606;52.930;8.644;2022-08-30T03:00:54;6.33;;;4.33;;
7128;SDS011;3606;52.930;8.644;2022-08-30T03:03:19;6.73;;;3.60;;
7128;SDS011;3606;52.930;8.644;2022-08-30T03:05:45;3.87;;;3.17;;
7128;SDS011;3606;52.930;8.644;2022-08-30T03:08:11;4.40;;;3.23;;
7128;SDS011;3606;52.930;8.644;2022-08-30T03:10:36;4.30;;;3.13;;
7128;SDS011;3606;52.930;8.644;2022-08-30T03:13:02;4.73;;;3.10;;
7128;SDS011;3606;52.930;8.644;2022-08-30T03:15:31;7.07;;;3.90;;
7128;SDS011;3606;52.930;8.644;2022-08-30T03:17:57;5.33;;;3.77;;
7128;SDS011;3606;52.930;8.644;2022-08-30T03:20:23;5.40;;;3.40;;
7128;SDS011;3606;52.930;8.644;2022-08-30T03:22:49;3.70;;;3.03;;
7128;SDS011;3606;52.930;8.644;2022-08-30T03:25:15;3.33;;;3.03;;
7128;SDS011;3606;52.930;8.644;2022-08-30T03:27:41;3.83;;;3.40;;
7128;SDS011;3606;52.930;8.644;2022-08-30T03:30:07;8.27;;;3.83;;
7128;SDS011;3606;52.930;8.644;2022-08-30T03:32:33;4.73;;;3.87;;
7128;SDS011;3606;52.930;8.644;2022-08-30T03:34:59;4.20;;;3.70;;
7128;SDS011;3606;52.930;8.644;2022-08-30T03:37:25;4.17;;;3.40;;
7128;SDS011;3606;52.930;8.644;2022-08-30T03:39:51;4.87;;;3.43;;
7128;SDS011;3606;52.930;8.644;2022-08-30T03:42:18;4.17;;;3.73;;
7128;SDS011;3606;52.930;8.644;2022-08-30T03:44:44;6.17;;;4.03;;
7128;SDS011;3606;52.930;8.644;2022-08-30T03:47:10;4.07;;;3.60;;
7128;SDS011;3606;52.930;8.644;2022-08-30T03:49:35;5.13;;;3.60;;
7128;SDS011;3606;52.930;8.644;2022-08-30T03:52:01;4.37;;;3.70;;
7128;SDS011;3606;52.930;8.644;2022-08-30T03:54:27;4.87;;;3.70;;
7128;SDS011;3606;52.930;8.644;2022-08-30T03:56:53;6.63;;;3.80;;
7128;SDS011;3606;52.930;8.644;2022-08-30T03:59:20;8.30;;;3.50;;
7128;SDS011;3606;52.930;8.644;2022-08-30T04:01:45;6.83;;;3.30;;
7128;SDS011;3606;52.930;8.644;2022-08-30T04:04:11;5.20;;;3.60;;
7128;SDS011;3606;52.930;8.644;2022-08-30T04:06:38;3.73;;;2.60;;
7128;SDS011;3606;52.930;8.644;2022-08-30T04:09:03;4.80;;;2.93;;
7128;SDS011;3606;52.930;8.644;2022-08-30T04:11:29;2.80;;;2.60;;
7128;SDS011;3606;52.930;8.644;2022-08-30T04:13:55;3.27;;;2.93;;
7128;SDS011;3606;52.930;8.644;2022-08-30T04:16:21;5.63;;;3.10;;
7128;SDS011;3606;52.930;8.644;2022-08-30T04:18:48;4.17;;;3.03;;
7128;SDS011;3606;52.930;8.644;2022-08-30T04:21:13;5.37;;;3.67;;
7128;SDS011;3606;52.930;8.644;2022-08-30T04:23:40;4.30;;;3.20;;
7128;SDS011;3606;52.930;8.644;2022-08-30T04:26:06;3.47;;;3.17;;
7128;SDS011;3606;52.930;8.644;2022-08-30T04:28:33;4.50;;;3.50;;
7128;SDS011;3606;52.930;8.644;2022-08-30T04:31:00;3.60;;;2.90;;
7128;SDS011;3606;52.930;8.644;2022-08-30T04:33:33;3.73;;;3.10;;
7128;SDS011;3606;52.930;8.644;2022-08-30T04:36:00;3.40;;;3.10;;
7128;SDS011;3606;52.930;8.644;2022-08-30T04:38:30;4.23;;;3.33;;
7128;SDS011;3606;52.930;8.644;2022-08-30T04:40:56;6.93;;;3.50;;
7128;SDS011;3606;52.930;8.644;2022-08-30T04:43:22;4.20;;;3.10;;
7128;SDS011;3606;52.930;8.644;2022-08-30T04:45:51;4.93;;;3.30;;
7128;SDS011;3606;52.930;8.644;2022-08-30T04:48:18;4.23;;;3.20;;
7128;SDS011;3606;52.930;8.644;2022-08-30T04:50:44;3.70;;;2.90;;
7128;SDS011;3606;52.930;8.644;2022-08-30T04:53:11;5.07;;;3.13;;
7128;SDS011;3606;52.930;8.644;2022-08-30T04:55:38;5.33;;;3.20;;
7128;SDS011;3606;52.930;8.644;2022-08-30T04:58:04;7.03;;;3.20;;
7128;SDS011;3606;52.930;8.644;2022-08-30T05:00:30;3.50;;;2.87;;
7128;SDS011;3606;52.930;8.644;2022-08-30T05:02:56;4.97;;;3.10;;
7128;SDS011;3606;52.930;8.644;2022-08-30T05:05:22;4.87;;;3.30;;
7128;SDS011;3606;52.930;8.644;2022-08-30T05:08:06;4.77;;;3.00;;
7128;SDS011;3606;52.930;8.644;2022-08-30T05:10:36;4.97;;;3.50;;
7128;SDS011;3606;52.930;8.644;2022-08-30T05:13:03;4.63;;;3.50;;
7128;SDS011;3606;52.930;8.644;2022-08-30T05:15:28;4.40;;;3.53;;
7128;SDS011;3606;52.930;8.644;2022-08-30T05:17:54;4.27;;;3.57;;
7128;SDS011;3606;52.930;8.644;2022-08-30T05:20:20;4.67;;;3.70;;
7128;SDS011;3606;52.930;8.644;2022-08-30T05:22:45;5.47;;;4.00;;
7128;SDS011;3606;52.930;8.644;2022-08-30T05:25:17;6.50;;;3.63;;
7128;SDS011;3606;52.930;8.644;2022-08-30T05:27:45;5.67;;;3.63;;
7128;SDS011;3606;52.930;8.644;2022-08-30T05:30:12;4.53;;;3.53;;
7128;SDS011;3606;52.930;8.644;2022-08-30T05:32:39;4.10;;;3.73;;
7128;SDS011;3606;52.930;8.644;2022-08-30T05:35:05;4.60;;;3.87;;
7128;SDS011;3606;52.930;8.644;2022-08-30T05:37:32;6.20;;;4.53;;
7128;SDS011;3606;52.930;8.644;2022-08-30T05:39:58;5.87;;;3.77;;
7128;SDS011;3606;52.930;8.644;2022-08-30T05:42:24;5.67;;;4.43;;
7128;SDS011;3606;52.930;8.644;2022-08-30T05:44:50;6.90;;;4.63;;
7128;SDS011;3606;52.930;8.644;2022-08-30T05:47:17;6.30;;;4.33;;
7128;SDS011;3606;52.930;8.644;2022-08-30T05:49:44;5.83;;;3.87;;
7128;SDS011;3606;52.930;8.644;2022-08-30T05:52:09;4.37;;;3.67;;
7128;SDS011;3606;52.930;8.644;2022-08-30T05:54:36;6.60;;;4.40;;
7128;SDS011;3606;52.930;8.644;2022-08-30T05:57:02;5.80;;;4.37;;
7128;SDS011;3606;52.930;8.644;2022-08-30T05:59:28;3.70;;;3.33;;
7128;SDS011;3606;52.930;8.644;2022-08-30T06:01:55;4.00;;;3.50;;
7128;SDS011;3606;52.930;8.644;2022-08-30T06:04:22;5.47;;;3.10;;
7128;SDS011;3606;52.930;8.644;2022-08-30T06:06:47;3.77;;;3.10;;
7128;SDS011;3606;52.930;8.644;2022-08-30T06:09:13;5.03;;;2.70;;
7128;SDS011;3606;52.930;8.644;2022-08-30T06:11:39;2.77;;;2.40;;
7128;SDS011;3606;52.930;8.644;2022-08-30T06:14:06;2.40;;;2.20;;
7128;SDS011;3606;52.930;8.644;2022-08-30T06:16:32;3.30;;;2.37;;
7128;SDS011;3606;52.930;8.644;2022-08-30T06:18:59;2.43;;;2.20;;
7128;SDS011;3606;52.930;8.644;2022-08-30T06:21:26;5.83;;;2.70;;
7128;SDS011;3606;52.930;8.644;2022-08-30T06:23:54;2.37;;;1.80;;
7128;SDS011;3606;52.930;8.644;2022-08-30T06:26:20;4.07;;;2.20;;
7128;SDS011;3606;52.930;8.644;2022-08-30T06:28:47;3.27;;;2.00;;
7128;SDS011;3606;52.930;8.644;2022-08-30T06:31:13;3.20;;;2.07;;
7128;SDS011;3606;52.930;8.644;2022-08-30T06:33:41;5.80;;;2.30;;
7128;SDS011;3606;52.930;8.644;2022-08-30T06:36:09;4.23;;;2.43;;
7128;SDS011;3606;52.930;8.644;2022-08-30T06:38:36;6.40;;;2.60;;
7128;SDS011;3606;52.930;8.644;2022-08-30T06:41:04;7.33;;;2.60;;
7128;SDS011;3606;52.930;8.644;2022-08-30T06:43:34;4.80;;;2.73;;
7128;SDS011;3606;52.930;8.644;2022-08-30T06:46:02;5.17;;;2.70;;
7128;SDS011;3606;52.930;8.644;2022-08-30T06:48:28;4.50;;;2.40;;
7128;SDS011;3606;52.930;8.644;2022-08-30T06:50:53;2.57;;;2.17;;
7128;SDS011;3606;52.930;8.644;2022-08-30T06:53:19;4.50;;;2.50;;
7128;SDS011;3606;52.930;8.644;2022-08-30T06:55:45;3.70;;;2.10;;
7128;SDS011;3606;52.930;8.644;2022-08-30T06:58:18;4.40;;;2.43;;
7128;SDS011;3606;52.930;8.644;2022-08-30T07:00:44;3.03;;;2.10;;
7128;SDS011;3606;52.930;8.644;2022-08-30T07:03:10;5.77;;;2.40;;
7128;SDS011;3606;52.930;8.644;2022-08-30T07:05:36;3.10;;;2.40;;
7128;SDS011;3606;52.930;8.644;2022-08-30T07:08:01;3.90;;;2.30;;
7128;SDS011;3606;52.930;8.644;2022-08-30T07:10:27;2.93;;;2.20;;
7128;SDS011;3606;52.930;8.644;2022-08-30T07:12:53;3.23;;;2.40;;
7128;SDS011;3606;52.930;8.644;2022-08-30T07:15:18;4.77;;;2.10;;
7128;SDS011;3606;52.930;8.644;2022-08-30T07:17:46;5.40;;;2.33;;
7128;SDS011;3606;52.930;8.644;2022-08-30T07:20:31;3.17;;;2.10;;
7128;SDS011;3606;52.930;8.644;2022-08-30T07:22:57;3.77;;;2.40;;
7128;SDS011;3606;52.930;8.644;2022-08-30T07:25:23;5.27;;;2.20;;
7128;SDS011;3606;52.930;8.644;2022-08-30T07:27:48;3.13;;;2.10;;
7128;SDS011;3606;52.930;8.644;2022-08-30T07:30:16;2.43;;;2.10;;
7128;SDS011;3606;52.930;8.644;2022-08-30T07:32:42;2.53;;;2.20;;
7128;SDS011;3606;52.930;8.644;2022-08-30T07:35:08;5.77;;;2.33;;
7128;SDS011;3606;52.930;8.644;2022-08-30T07:37:33;4.07;;;1.97;;
7128;SDS011;3606;52.930;8.644;2022-08-30T07:39:59;4.50;;;2.23;;
7128;SDS011;3606;52.930;8.644;2022-08-30T07:42:25;3.97;;;2.13;;
7128;SDS011;3606;52.930;8.644;2022-08-30T07:44:51;2.53;;;2.20;;
7128;SDS011;3606;52.930;8.644;2022-08-30T07:47:16;2.70;;;1.90;;
7128;SDS011;3606;52.930;8.644;2022-08-30T07:49:42;2.40;;;2.00;;
7128;SDS011;3606;52.930;8.644;2022-08-30T07:52:07;3.10;;;2.17;;
7128;SDS011;3606;52.930;8.644;2022-08-30T07:54:33;2.90;;;2.00;;
7128;SDS011;3606;52.930;8.644;2022-08-30T07:56:59;4.60;;;2.23;;
7128;SDS011;3606;52.930;8.644;2022-08-30T07:59:24;4.30;;;2.20;;
7128;SDS011;3606;52.930;8.644;2022-08-30T08:01:50;2.73;;;1.90;;
7128;SDS011;3606;52.930;8.644;2022-08-30T08:04:15;3.45;;;2.25;;
7128;SDS011;3606;52.930;8.644;2022-08-30T08:06:41;1.83;;;1.67;;
7128;SDS011;3606;52.930;8.644;2022-08-30T08:09:07;2.20;;;1.92;;
7128;SDS011;3606;52.930;8.644;2022-08-30T08:11:33;5.65;;;2.00;;
7128;SDS011;3606;52.930;8.644;2022-08-30T08:14:00;3.42;;;2.20;;
7128;SDS011;3606;52.930;8.644;2022-08-30T08:16:27;1.92;;;1.75;;
7128;SDS011;3606;52.930;8.644;2022-08-30T08:18:55;4.43;;;2.03;;
7128;SDS011;3606;52.930;8.644;2022-08-30T08:21:21;4.18;;;1.95;;
7128;SDS011;3606;52.930;8.644;2022-08-30T08:23:48;4.22;;;1.95;;
7128;SDS011;3606;52.930;8.644;2022-08-30T08:26:14;2.92;;;2.08;;
7128;SDS011;3606;52.930;8.644;2022-08-30T08:28:40;3.58;;;2.10;;
7128;SDS011;3606;52.930;8.644;2022-08-30T08:31:19;3.63;;;2.33;;
7128;SDS011;3606;52.930;8.644;2022-08-30T08:33:47;3.05;;;2.10;;
7128;SDS011;3606;52.930;8.644;2022-08-30T08:36:12;4.15;;;1.77;;
7128;SDS011;3606;52.930;8.644;2022-08-30T08:38:38;2.30;;;1.73;;
7128;SDS011;3606;52.930;8.644;2022-08-30T08:43:57;4.38;;;2.13;;
7128;SDS011;3606;52.930;8.644;2022-08-30T08:48:53;4.80;;;2.28;;
7128;SDS011;3606;52.930;8.644;2022-08-30T08:51:22;2.15;;;1.52;;
7128;SDS011;3606;52.930;8.644;2022-08-30T08:56:38;2.65;;;1.42;;
7128;SDS011;3606;52.930;8.644;2022-08-30T08:59:04;2.67;;;1.90;;
7128;SDS011;3606;52.930;8.644;2022-08-30T09:01:32;2.33;;;1.30;;
7128;SDS011;3606;52.930;8.644;2022-08-30T09:04:00;5.25;;;1.90;;
7128;SDS011;3606;52.930;8.644;2022-08-30T09:06:37;1.83;;;1.73;;
7128;SDS011;3606;52.930;8.644;2022-08-30T09:09:13;5.13;;;2.60;;
7128;SDS011;3606;52.930;8.644;2022-08-30T09:11:39;4.78;;;2.00;;
7128;SDS011;3606;52.930;8.644;2022-08-30T09:14:18;2.70;;;1.92;;
7128;SDS011;3606;52.930;8.644;2022-08-30T09:16:50;3.30;;;2.10;;
7128;SDS011;3606;52.930;8.644;2022-08-30T09:20:10;5.40;;;2.22;;
7128;SDS011;3606;52.930;8.644;2022-08-30T09:24:54;4.20;;;1.80;;
7128;SDS011;3606;52.930;8.644;2022-08-30T09:27:34;2.45;;;2.00;;
7128;SDS011;3606;52.930;8.644;2022-08-30T09:32:31;3.97;;;2.15;;
7128;SDS011;3606;52.930;8.644;2022-08-30T09:34:59;3.45;;;1.88;;
7128;SDS011;3606;52.930;8.644;2022-08-30T09:39:53;2.00;;;1.80;;
7128;SDS011;3606;52.930;8.644;2022-08-30T09:42:24;2.92;;;1.65;;
7128;SDS011;3606;52.930;8.644;2022-08-30T09:44:52;3.70;;;1.83;;
7128;SDS011;3606;52.930;8.644;2022-08-30T09:47:34;1.75;;;1.65;;
7128;SDS011;3606;52.930;8.644;2022-08-30T09:50:04;2.85;;;1.70;;
7128;SDS011;3606;52.930;8.644;2022-08-30T09:55:14;2.15;;;1.98;;
7128;SDS011;3606;52.930;8.644;2022-08-30T10:00:17;2.40;;;2.00;;
7128;SDS011;3606;52.930;8.644;2022-08-30T10:02:47;2.50;;;1.65;;
7128;SDS011;3606;52.930;8.644;2022-08-30T10:08:53;1.80;;;1.60;;
7128;SDS011;3606;52.930;8.644;2022-08-30T10:11:34;2.60;;;1.80;;
7128;SDS011;3606;52.930;8.644;2022-08-30T10:17:03;3.20;;;2.10;;
7128;SDS011;3606;52.930;8.644;2022-08-30T10:25:37;1.67;;;1.58;;
7128;SDS011;3606;52.930;8.644;2022-08-30T10:28:53;1.67;;;1.58;;
7128;SDS011;3606;52.930;8.644;2022-08-30T10:31:00;3.88;;;1.90;;
7128;SDS011;3606;52.930;8.644;2022-08-30T10:33:31;2.35;;;1.75;;
7128;SDS011;3606;52.930;8.644;2022-08-30T10:36:03;2.88;;;2.10;;
7128;SDS011;3606;52.930;8.644;2022-08-30T10:38:37;2.90;;;1.88;;
7128;SDS011;3606;52.930;8.644;2022-08-30T10:49:16;2.58;;;1.70;;
7128;SDS011;3606;52.930;8.644;2022-08-30T10:52:12;2.10;;;1.45;;
7128;SDS011;3606;52.930;8.644;2022-08-30T10:57:30;1.88;;;1.67;;
7128;SDS011;3606;52.930;8.644;2022-08-30T11:00:07;3.63;;;1.65;;
7128;SDS011;3606;52.930;8.644;2022-08-30T11:05:28;1.80;;;1.50;;
7128;SDS011;3606;52.930;8.644;2022-08-30T11:13:35;1.58;;;1.00;;
7128;SDS011;3606;52.930;8.644;2022-08-30T11:21:23;1.95;;;1.05;;
7128;SDS011;3606;52.930;8.644;2022-08-30T11:42:47;1.17;;;1.00;;
7128;SDS011;3606;52.930;8.644;2022-08-30T11:47:54;2.15;;;1.33;;
7128;SDS011;3606;52.930;8.644;2022-08-30T11:55:36;1.77;;;0.90;;
7128;SDS011;3606;52.930;8.644;2022-08-30T11:58:13;1.08;;;0.95;;
7128;SDS011;3606;52.930;8.644;2022-08-30T12:03:52;0.77;;;0.77;;
7128;SDS011;3606;52.930;8.644;2022-08-30T12:09:09;1.35;;;1.25;;
7128;SDS011;3606;52.930;8.644;2022-08-30T12:14:02;1.33;;;1.20;;
7128;SDS011;3606;52.930;8.644;2022-08-30T12:16:45;3.53;;;1.08;;
7128;SDS011;3606;52.930;8.644;2022-08-30T12:19:31;2.40;;;1.00;;
7128;SDS011;3606;52.930;8.644;2022-08-30T12:21:58;2.10;;;1.13;;
7128;SDS011;3606;52.930;8.644;2022-08-30T12:24:31;1.75;;;1.15;;
7128;SDS011;3606;52.930;8.644;2022-08-30T12:27:00;1.63;;;0.90;;
7128;SDS011;3606;52.930;8.644;2022-08-30T12:29:54;1.85;;;1.00;;
7128;SDS011;3606;52.930;8.644;2022-08-30T12:32:25;2.50;;;1.35;;
7128;SDS011;3606;52.930;8.644;2022-08-30T12:34:55;1.98;;;1.27;;
7128;SDS011;3606;52.930;8.644;2022-08-30T12:37:31;1.38;;;1.10;;
7128;SDS011;3606;52.930;8.644;2022-08-30T12:42:33;3.75;;;1.20;;
7128;SDS011;3606;52.930;8.644;2022-08-30T12:45:04;1.92;;;1.15;;
7128;SDS011;3606;52.930;8.644;2022-08-30T12:47:43;3.42;;;1.35;;
7128;SDS011;3606;52.930;8.644;2022-08-30T12:50:14;1.75;;;1.45;;
7128;SDS011;3606;52.930;8.644;2022-08-30T12:52:45;2.15;;;1.40;;
7128;SDS011;3606;52.930;8.644;2022-08-30T12:55:25;1.65;;;1.30;;
7128;SDS011;3606;52.930;8.644;2022-08-30T12:58:03;3.10;;;1.38;;
7128;SDS011;3606;52.930;8.644;2022-08-30T13:00:30;1.63;;;1.33;;
7128;SDS011;3606;52.930;8.644;2022-08-30T13:02:59;1.40;;;1.30;;
7128;SDS011;3606;52.930;8.644;2022-08-30T13:05:30;1.63;;;1.50;;
7128;SDS011;3606;52.930;8.644;2022-08-30T13:08:15;3.15;;;1.23;;
7128;SDS011;3606;52.930;8.644;2022-08-30T13:10:55;1.30;;;1.13;;
7128;SDS011;3606;52.930;8.644;2022-08-30T13:16:10;1.30;;;1.13;;
7128;SDS011;3606;52.930;8.644;2022-08-30T13:18:49;1.25;;;1.02;;
7128;SDS011;3606;52.930;8.644;2022-08-30T13:23:50;1.20;;;1.10;;
7128;SDS011;3606;52.930;8.644;2022-08-30T13:26:19;1.35;;;1.25;;
7128;SDS011;3606;52.930;8.644;2022-08-30T13:28:53;2.60;;;1.30;;
7128;SDS011;3606;52.930;8.644;2022-08-30T13:31:23;1.23;;;1.13;;
7128;SDS011;3606;52.930;8.644;2022-08-30T13:33:50;2.08;;;1.30;;
7128;SDS011;3606;52.930;8.644;2022-08-30T13:36:18;1.30;;;1.20;;
7128;SDS011;3606;52.930;8.644;2022-08-30T13:38:45;4.30;;;1.08;;
7128;SDS011;3606;52.930;8.644;2022-08-30T13:41:12;1.88;;;1.23;;
7128;SDS011;3606;52.930;8.644;2022-08-30T13:43:38;1.15;;;1.05;;
7128;SDS011;3606;52.930;8.644;2022-08-30T13:46:04;3.67;;;1.20;;
7128;SDS011;3606;52.930;8.644;2022-08-30T13:48:30;2.35;;;1.17;;
7128;SDS011;3606;52.930;8.644;2022-08-30T13:50:56;1.42;;;0.93;;
7128;SDS011;3606;52.930;8.644;2022-08-30T13:53:22;3.53;;;1.00;;
7128;SDS011;3606;52.930;8.644;2022-08-30T13:55:48;0.82;;;0.80;;
7128;SDS011;3606;52.930;8.644;2022-08-30T13:58:14;1.33;;;1.20;;
7128;SDS011;3606;52.930;8.644;2022-08-30T14:00:40;1.45;;;1.20;;
7128;SDS011;3606;52.930;8.644;2022-08-30T14:03:06;2.70;;;1.10;;
7128;SDS011;3606;52.930;8.644;2022-08-30T14:05:34;0.90;;;0.90;;
7128;SDS011;3606;52.930;8.644;2022-08-30T14:08:02;2.25;;;1.50;;
7128;SDS011;3606;52.930;8.644;2022-08-30T14:10:30;1.40;;;1.30;;
7128;SDS011;3606;52.930;8.644;2022-08-30T14:12:56;1.30;;;1.20;;
7128;SDS011;3606;52.930;8.644;2022-08-30T14:15:22;1.42;;;1.20;;
7128;SDS011;3606;52.930;8.644;2022-08-30T14:17:47;1.20;;;0.95;;
7128;SDS011;3606;52.930;8.644;2022-08-30T14:20:13;1.30;;;0.90;;
7128;SDS011;3606;52.930;8.644;2022-08-30T14:22:39;2.97;;;1.15;;
7128;SDS011;3606;52.930;8.644;2022-08-30T14:25:04;2.17;;;1.40;;
7128;SDS011;3606;52.930;8.644;2022-08-30T14:27:30;1.00;;;1.00;;
7128;SDS011;3606;52.930;8.644;2022-08-30T14:29:56;1.08;;;1.02;;
7128;SDS011;3606;52.930;8.644;2022-08-30T14:32:22;1.58;;;0.90;;
7128;SDS011;3606;52.930;8.644;2022-08-30T14:34:48;2.35;;;1.13;;
7128;SDS011;3606;52.930;8.644;2022-08-30T14:37:14;2.13;;;0.93;;
7128;SDS011;3606;52.930;8.644;2022-08-30T14:39:40;1.20;;;1.08;;
7128;SDS011;3606;52.930;8.644;2022-08-30T14:42:06;2.13;;;1.20;;
7128;SDS011;3606;52.930;8.644;2022-08-30T14:44:32;4.15;;;1.15;;
7128;SDS011;3606;52.930;8.644;2022-08-30T14:46:59;4.45;;;1.40;;
7128;SDS011;3606;52.930;8.644;2022-08-30T14:49:25;1.65;;;1.00;;
7128;SDS011;3606;52.930;8.644;2022-08-30T14:51:51;1.75;;;0.77;;
7128;SDS011;3606;52.930;8.644;2022-08-30T14:54:19;2.05;;;0.80;;
7128;SDS011;3606;52.930;8.644;2022-08-30T14:56:47;1.42;;;1.02;;
7128;SDS011;3606;52.930;8.644;2022-08-30T14:59:12;1.17;;;1.08;;
7128;SDS011;3606;52.930;8.644;2022-08-30T15:01:38;0.98;;;0.88;;
7128;SDS011;3606;52.930;8.644;2022-08-30T15:04:05;1.20;;;1.10;;
7128;SDS011;3606;52.930;8.644;2022-08-30T15:06:32;2.45;;;0.95;;
7128;SDS011;3606;52.930;8.644;2022-08-30T15:08:58;1.23;;;0.68;;
7128;SDS011;3606;52.930;8.644;2022-08-30T15:11:24;1.33;;;1.10;;
7128;SDS011;3606;52.930;8.644;2022-08-30T15:13:50;2.97;;;1.15;;
7128;SDS011;3606;52.930;8.644;2022-08-30T15:16:19;1.05;;;0.68;;
7128;SDS011;3606;52.930;8.644;2022-08-30T15:18:51;0.77;;;0.77;;
7128;SDS011;3606;52.930;8.644;2022-08-30T15:21:21;1.35;;;0.95;;
7128;SDS011;3606;52.930;8.644;2022-08-30T15:23:48;2.15;;;1.20;;
7128;SDS011;3606;52.930;8.644;2022-08-30T15:26:14;2.33;;;0.90;;
7128;SDS011;3606;52.930;8.644;2022-08-30T15:28:39;1.02;;;1.02;;
7128;SDS011;3606;52.930;8.644;2022-08-30T15:31:05;1.00;;;1.00;;
7128;SDS011;3606;52.930;8.644;2022-08-30T15:33:30;1.65;;;1.00;;
7128;SDS011;3606;52.930;8.644;2022-08-30T15:35:58;1.00;;;0.90;;
7128;SDS011;3606;52.930;8.644;2022-08-30T15:38:26;1.05;;;0.95;;
7128;SDS011;3606;52.930;8.644;2022-08-30T15:40:52;1.95;;;1.02;;
7128;SDS011;3606;52.930;8.644;2022-08-30T15:43:17;0.80;;;0.80;;
7128;SDS011;3606;52.930;8.644;2022-08-30T15:45:43;5.22;;;1.25;;
7128;SDS011;3606;52.930;8.644;2022-08-30T15:48:09;1.02;;;0.90;;
7128;SDS011;3606;52.930;8.644;2022-08-30T15:50:35;1.77;;;0.95;;
7128;SDS011;3606;52.930;8.644;2022-08-30T15:53:01;2.45;;;1.10;;
7128;SDS011;3606;52.930;8.644;2022-08-30T15:55:27;0.90;;;0.90;;
7128;SDS011;3606;52.930;8.644;2022-08-30T15:57:53;0.90;;;0.80;;
7128;SDS011;3606;52.930;8.644;2022-08-30T16:00:18;2.10;;;0.90;;
7128;SDS011;3606;52.930;8.644;2022-08-30T16:02:44;1.13;;;0.90;;
7128;SDS011;3606;52.930;8.644;2022-08-30T16:05:13;1.93;;;0.97;;
7128;SDS011;3606;52.930;8.644;2022-08-30T16:07:39;0.60;;;0.60;;
7128;SDS011;3606;52.930;8.644;2022-08-30T16:10:04;0.63;;;0.63;;
7128;SDS011;3606;52.930;8.644;2022-08-30T16:12:30;1.73;;;0.60;;
7128;SDS011;3606;52.930;8.644;2022-08-30T16:14:56;0.80;;;0.80;;
7128;SDS011;3606;52.930;8.644;2022-08-30T16:17:22;1.37;;;0.83;;
7128;SDS011;3606;52.930;8.644;2022-08-30T16:19:48;1.70;;;0.83;;
7128;SDS011;3606;52.930;8.644;2022-08-30T16:22:13;1.23;;;1.00;;
7128;SDS011;3606;52.930;8.644;2022-08-30T16:24:39;0.90;;;0.90;;
7128;SDS011;3606;52.930;8.644;2022-08-30T16:27:07;1.10;;;0.60;;
7128;SDS011;3606;52.930;8.644;2022-08-30T16:29:33;1.27;;;0.80;;
7128;SDS011;3606;52.930;8.644;2022-08-30T16:31:58;0.70;;;0.70;;
7128;SDS011;3606;52.930;8.644;2022-08-30T16:34:24;0.83;;;0.70;;
7128;SDS011;3606;52.930;8.644;2022-08-30T16:36:49;1.10;;;1.00;;
7128;SDS011;3606;52.930;8.644;2022-08-30T16:39:15;1.13;;;1.03;;
7128;SDS011;3606;52.930;8.644;2022-08-30T16:41:42;0.90;;;0.80;;
7128;SDS011;3606;52.930;8.644;2022-08-30T16:44:09;0.87;;;0.87;;
7128;SDS011;3606;52.930;8.644;2022-08-30T16:46:35;0.87;;;0.83;;
7128;SDS011;3606;52.930;8.644;2022-08-30T16:49:01;0.90;;;0.80;;
7128;SDS011;3606;52.930;8.644;2022-08-30T16:51:30;1.63;;;0.90;;
7128;SDS011;3606;52.930;8.644;2022-08-30T16:53:57;0.70;;;0.60;;
7128;SDS011;3606;52.930;8.644;2022-08-30T16:56:24;0.80;;;0.70;;
7128;SDS011;3606;52.930;8.644;2022-08-30T16:58:51;0.80;;;0.80;;
7128;SDS011;3606;52.930;8.644;2022-08-30T17:01:19;0.80;;;0.80;;
7128;SDS011;3606;52.930;8.644;2022-08-30T17:03:45;2.60;;;2.30;;